createdAt,value
2022-08-11T00:01:22.864Z,3.10
2022-08-11T00:03:58.159Z,3.10
2022-08-11T00:06:35.733Z,3.07
2022-08-11T00:09:06.958Z,3.15
2022-08-11T00:11:43.742Z,3.13
2022-08-11T00:14:20.723Z,3.08
2022-08-11T00:17:02.140Z,2.80
2022-08-11T00:20:12.714Z,2.90
2022-08-11T00:22:24.249Z,2.90
2022-08-11T00:24:54.958Z,2.80
2022-08-11T00:27:36.351Z,2.85
2022-08-11T00:30:06.202Z,2.90
2022-08-11T00:32:34.008Z,3.00
2022-08-11T00:35:53.963Z,3.00
2022-08-11T00:37:52.294Z,3.00
2022-08-11T00:40:27.233Z,3.20
2022-08-11T00:43:20.011Z,2.88
2022-08-11T00:46:09.171Z,2.93
2022-08-11T00:49:07.157Z,2.90
2022-08-11T00:52:04.028Z,3.15
2022-08-11T00:54:38.649Z,3.00
2022-08-11T00:57:42.769Z,3.00
2022-08-11T01:00:18.969Z,2.70
2022-08-11T01:03:03.755Z,2.88
2022-08-11T01:05:49.078Z,3.00
2022-08-11T01:08:28.771Z,2.90
2022-08-11T01:11:10.991Z,2.95
2022-08-11T01:13:59.191Z,2.90
2022-08-11T01:16:44.633Z,2.80
2022-08-11T01:20:45.247Z,2.83
2022-08-11T01:22:53.652Z,3.00
2022-08-11T01:25:56.915Z,2.88
2022-08-11T01:28:27.539Z,2.83
2022-08-11T01:31:29.844Z,3.10
2022-08-11T01:34:48.175Z,3.13
2022-08-11T01:38:01.988Z,3.28
2022-08-11T01:40:57.852Z,3.00
2022-08-11T01:43:58.141Z,3.00
2022-08-11T01:47:02.340Z,3.10
2022-08-11T01:50:07.712Z,3.35
2022-08-11T01:53:15.843Z,3.08
2022-08-11T01:56:09.871Z,3.20
2022-08-11T01:59:03.295Z,3.10
2022-08-11T02:01:58.710Z,3.10
2022-08-11T02:05:07.488Z,3.20
2022-08-11T02:07:56.464Z,3.25
2022-08-11T02:10:50.722Z,3.38
2022-08-11T02:13:52.070Z,3.27
2022-08-11T02:16:33.229Z,3.05
2022-08-11T02:19:37.326Z,3.40
2022-08-11T02:22:50.407Z,3.10
2022-08-11T02:25:37.288Z,3.30
2022-08-11T02:28:23.879Z,3.30
2022-08-11T02:32:24.150Z,3.10
2022-08-11T02:34:45.338Z,3.38
2022-08-11T02:37:43.623Z,3.30
2022-08-11T02:40:23.209Z,3.40
2022-08-11T02:43:03.981Z,3.10
2022-08-11T02:45:54.754Z,3.20
2022-08-11T02:49:08.504Z,3.30
2022-08-11T02:51:53.970Z,3.45
2022-08-11T02:54:42.365Z,3.40
2022-08-11T02:57:44.776Z,3.60
2022-08-11T03:00:16.288Z,3.20
2022-08-11T03:02:54.928Z,3.38
2022-08-11T03:05:44.975Z,3.50
2022-08-11T03:08:14.023Z,3.70
2022-08-11T03:11:23.626Z,3.53
2022-08-11T03:14:34.414Z,3.70
2022-08-11T03:17:22.241Z,3.58
2022-08-11T03:19:48.875Z,3.42
2022-08-11T03:22:18.695Z,3.70
2022-08-11T03:24:51.528Z,3.67
2022-08-11T03:27:46.148Z,3.80
2022-08-11T03:30:18.163Z,4.05
2022-08-11T03:33:33.926Z,3.88
2022-08-11T03:36:36.800Z,3.40
2022-08-11T03:39:55.565Z,3.80
2022-08-11T03:42:42.247Z,3.90
2022-08-11T03:45:57.213Z,4.18
2022-08-11T03:48:49.074Z,3.88
2022-08-11T03:51:54.319Z,3.90
2022-08-11T03:54:26.772Z,4.13
2022-08-11T03:57:36.477Z,4.20
2022-08-11T04:00:20.714Z,3.92
2022-08-11T04:03:31.077Z,4.10
2022-08-11T04:06:09.208Z,4.15
2022-08-11T04:08:42.132Z,4.20
2022-08-11T04:11:37.952Z,4.30
2022-08-11T04:14:42.246Z,4.30
2022-08-11T04:17:28.167Z,4.22
2022-08-11T04:20:09.334Z,4.10
2022-08-11T04:23:03.379Z,4.07
2022-08-11T04:25:51.037Z,4.30
2022-08-11T04:28:55.046Z,4.50
2022-08-11T04:31:51.719Z,4.40
2022-08-11T04:34:41.520Z,4.60
2022-08-11T04:37:34.990Z,4.57
2022-08-11T04:40:26.860Z,4.50
2022-08-11T04:43:31.095Z,4.50
2022-08-11T04:46:22.396Z,4.18
2022-08-11T04:49:33.954Z,4.40
2022-08-11T04:52:37.434Z,4.33
2022-08-11T04:56:04.500Z,4.53
2022-08-11T04:59:26.120Z,4.57
2022-08-11T05:02:30.128Z,4.10
2022-08-11T05:05:32.182Z,4.50
2022-08-11T05:08:36.517Z,4.30
2022-08-11T05:11:28.083Z,4.40
2022-08-11T05:14:31.846Z,4.65
2022-08-11T05:17:29.522Z,4.95
2022-08-11T05:20:14.932Z,4.80
2022-08-11T05:23:09.142Z,4.73
2022-08-11T05:26:43.689Z,4.57
2022-08-11T05:29:20.421Z,4.78
2022-08-11T05:32:16.365Z,4.35
2022-08-11T05:34:55.184Z,4.80
2022-08-11T05:37:29.753Z,4.50
2022-08-11T05:40:24.001Z,4.93
2022-08-11T05:43:14.960Z,5.13
2022-08-11T05:46:03.475Z,5.18
2022-08-11T05:48:55.412Z,5.10
2022-08-11T05:51:55.407Z,4.70
2022-08-11T05:54:46.224Z,4.60
2022-08-11T05:57:48.687Z,5.20
2022-08-11T06:00:19.314Z,5.25
2022-08-11T06:02:51.801Z,5.25
2022-08-11T06:05:32.671Z,5.30
2022-08-11T06:08:09.473Z,4.90
2022-08-11T06:10:39.598Z,5.47
2022-08-11T06:13:08.181Z,5.00
2022-08-11T06:15:44.898Z,5.00
2022-08-11T06:18:13.522Z,5.20
2022-08-11T06:20:58.543Z,5.30
2022-08-11T06:23:33.597Z,5.15
2022-08-11T06:26:09.857Z,4.85
2022-08-11T06:28:39.039Z,4.70
2022-08-11T06:31:24.128Z,4.50
2022-08-11T06:33:50.920Z,4.55
2022-08-11T06:36:42.950Z,4.72
2022-08-11T06:39:50.809Z,4.63
2022-08-11T06:42:48.071Z,4.50
2022-08-11T06:45:26.952Z,4.60
2022-08-11T06:47:55.488Z,4.47
2022-08-11T06:50:41.849Z,4.32
2022-08-11T06:53:10.603Z,4.20
2022-08-11T06:56:00.372Z,4.32
2022-08-11T06:58:49.625Z,4.13
2022-08-11T07:01:36.086Z,3.80
2022-08-11T07:04:08.237Z,4.22
2022-08-11T07:07:14.721Z,4.15
2022-08-11T07:10:23.085Z,4.10
2022-08-11T07:13:45.088Z,3.90
2022-08-11T07:16:12.105Z,3.70
2022-08-11T07:19:20.540Z,3.78
2022-08-11T07:22:07.163Z,3.60
2022-08-11T07:25:04.684Z,3.42
2022-08-11T07:28:02.737Z,3.60
2022-08-11T07:30:32.410Z,3.38
2022-08-11T07:33:02.962Z,3.42
2022-08-11T07:35:35.882Z,3.30
2022-08-11T07:38:08.003Z,3.72
2022-08-11T07:40:36.471Z,3.53
2022-08-11T07:43:04.793Z,3.08
2022-08-11T07:45:50.616Z,3.42
2022-08-11T07:48:36.842Z,3.40
2022-08-11T07:51:22.908Z,3.38
2022-08-11T07:54:03.025Z,3.30
2022-08-11T07:56:54.221Z,3.25
2022-08-11T08:00:00.543Z,3.20
2022-08-11T08:02:47.275Z,3.50
2022-08-11T08:05:34.402Z,3.50
2022-08-11T08:08:19.824Z,3.20
2022-08-11T08:11:05.130Z,3.60
2022-08-11T08:13:51.959Z,3.47
2022-08-11T08:16:39.266Z,3.38
2022-08-11T08:19:06.243Z,3.10
2022-08-11T08:21:33.282Z,3.20
2022-08-11T08:24:00.930Z,3.10
2022-08-11T08:26:51.319Z,3.40
2022-08-11T08:29:38.784Z,2.97
2022-08-11T08:32:06.991Z,3.15
2022-08-11T08:34:36.938Z,3.00
2022-08-11T08:37:15.726Z,3.30
2022-08-11T08:39:53.542Z,3.20
2022-08-11T08:42:32.672Z,3.10
2022-08-11T08:45:11.552Z,3.08
2022-08-11T08:47:53.385Z,2.90
2022-08-11T08:50:27.774Z,2.85
2022-08-11T08:52:59.717Z,3.30
2022-08-11T08:55:29.143Z,3.10
2022-08-11T08:57:58.007Z,3.20
2022-08-11T09:00:24.921Z,2.83
2022-08-11T09:02:52.236Z,2.95
2022-08-11T09:05:19.773Z,3.10
2022-08-11T09:07:51.003Z,2.55
2022-08-11T09:10:20.368Z,3.00
2022-08-11T09:12:48.881Z,3.00
2022-08-11T09:15:19.650Z,2.85
2022-08-11T09:17:50.240Z,3.05
2022-08-11T09:20:24.640Z,2.97
2022-08-11T09:24:07.910Z,2.90
2022-08-11T09:26:20.234Z,2.70
2022-08-11T09:28:49.682Z,2.80
2022-08-11T09:31:16.973Z,3.10
2022-08-11T09:33:44.848Z,2.70
2022-08-11T09:36:32.120Z,2.70
2022-08-11T09:39:21.526Z,2.43
2022-08-11T09:41:55.754Z,2.20
2022-08-11T09:44:49.826Z,2.60
2022-08-11T09:47:26.307Z,2.30
2022-08-11T09:49:59.667Z,2.50
2022-08-11T09:52:26.965Z,2.60
2022-08-11T09:54:55.369Z,2.30
2022-08-11T09:57:41.434Z,2.30
2022-08-11T10:00:13.326Z,2.05
2022-08-11T10:02:47.142Z,2.38
2022-08-11T10:05:36.216Z,2.30
2022-08-11T10:08:04.563Z,2.20
2022-08-11T10:10:36.368Z,2.15
2022-08-11T10:14:31.646Z,1.95
2022-08-11T10:16:15.710Z,1.92
2022-08-11T10:18:52.958Z,1.80
2022-08-11T10:21:37.195Z,1.60
2022-08-11T10:24:24.624Z,1.80
2022-08-11T10:26:57.087Z,1.80
2022-08-11T10:29:51.170Z,1.60
2022-08-11T10:32:58.066Z,1.60
2022-08-11T10:35:29.558Z,1.52
2022-08-11T10:38:06.240Z,1.55
2022-08-11T10:40:39.489Z,1.90
2022-08-11T10:43:13.240Z,1.75
2022-08-11T10:46:04.349Z,1.60
2022-08-11T10:48:37.777Z,1.58
2022-08-11T10:51:15.074Z,1.70
2022-08-11T10:54:12.331Z,1.73
2022-08-11T10:56:59.366Z,1.75
2022-08-11T10:59:29.896Z,1.77
2022-08-11T11:01:59.087Z,1.90
2022-08-11T11:04:59.193Z,2.30
2022-08-11T11:07:49.761Z,2.10
2022-08-11T11:10:16.886Z,2.10
2022-08-11T11:13:10.134Z,1.80
2022-08-11T11:15:58.272Z,1.92
2022-08-11T11:18:33.455Z,1.92
2022-08-11T11:21:07.390Z,1.80
2022-08-11T11:23:58.271Z,2.03
2022-08-11T11:26:28.253Z,1.90
2022-08-11T11:29:25.306Z,2.00
2022-08-11T11:32:35.172Z,1.90
2022-08-11T11:35:26.583Z,1.90
2022-08-11T11:37:58.502Z,1.90
2022-08-11T11:40:32.493Z,1.97
2022-08-11T11:43:00.398Z,1.95
2022-08-11T11:45:27.474Z,1.98
2022-08-11T11:47:56.605Z,1.90
2022-08-11T11:50:32.937Z,1.70
2022-08-11T11:53:03.586Z,1.60
2022-08-11T11:55:31.489Z,1.70
2022-08-11T11:58:19.519Z,1.65
2022-08-11T12:01:05.801Z,1.70
2022-08-11T12:03:35.233Z,1.70
2022-08-11T12:06:03.433Z,1.47
2022-08-11T12:08:31.364Z,1.70
2022-08-11T12:11:29.444Z,1.63
2022-08-11T12:14:01.856Z,1.67
2022-08-11T12:16:33.300Z,1.80
2022-08-11T12:19:18.156Z,1.70
2022-08-11T12:22:04.518Z,1.58
2022-08-11T12:24:52.446Z,1.70
2022-08-11T12:27:25.510Z,1.70
2022-08-11T12:30:01.958Z,1.70
2022-08-11T12:32:31.654Z,1.70
2022-08-11T12:34:58.944Z,1.77
2022-08-11T12:37:47.998Z,1.60
2022-08-11T12:41:11.778Z,1.90
2022-08-11T12:43:56.913Z,2.00
2022-08-11T12:46:29.565Z,1.80
2022-08-11T12:49:19.760Z,1.90
2022-08-11T12:52:10.996Z,1.67
2022-08-11T12:55:07.505Z,1.63
2022-08-11T12:58:06.182Z,1.70
2022-08-11T13:00:52.145Z,1.70
2022-08-11T13:03:39.142Z,2.20
2022-08-11T13:06:07.385Z,1.80
2022-08-11T13:08:37.775Z,1.70
2022-08-11T13:11:23.716Z,1.80
2022-08-11T13:13:57.463Z,1.50
2022-08-11T13:16:56.657Z,1.80
2022-08-11T13:19:23.956Z,1.70
2022-08-11T13:21:52.373Z,1.80
2022-08-11T13:24:21.532Z,1.80
2022-08-11T13:26:50.832Z,1.87
2022-08-11T13:29:20.398Z,1.95
2022-08-11T13:31:48.132Z,1.80
2022-08-11T13:34:20.384Z,1.80
2022-08-11T13:36:55.461Z,1.70
2022-08-11T13:39:30.973Z,1.87
2022-08-11T13:42:01.096Z,1.85
2022-08-11T13:44:30.998Z,1.80
2022-08-11T13:47:02.447Z,1.60
2022-08-11T13:49:35.498Z,1.90
2022-08-11T13:52:03.583Z,1.70
2022-08-11T13:54:34.719Z,1.70
2022-08-11T13:57:08.201Z,2.00
2022-08-11T13:59:51.777Z,1.75
2022-08-11T14:02:28.414Z,1.83
2022-08-11T14:04:57.158Z,1.90
2022-08-11T14:07:32.156Z,1.80
2022-08-11T14:10:00.176Z,1.80
2022-08-11T14:12:48.660Z,1.67
2022-08-11T14:15:22.681Z,1.88
2022-08-11T14:18:01.503Z,1.80
2022-08-11T14:20:49.830Z,1.70
2022-08-11T14:23:17.867Z,1.70
2022-08-11T14:26:04.775Z,2.03
2022-08-11T14:28:41.680Z,1.90
2022-08-11T14:31:11.448Z,1.80
2022-08-11T14:34:00.575Z,1.80
2022-08-11T14:36:28.634Z,1.77
2022-08-11T14:38:55.939Z,1.90
2022-08-11T14:42:10.277Z,2.03
2022-08-11T14:44:50.505Z,1.80
2022-08-11T14:47:24.295Z,1.90
2022-08-11T14:49:58.447Z,1.98
2022-08-11T14:52:38.867Z,2.10
2022-08-11T14:55:26.424Z,2.00
2022-08-11T14:57:55.107Z,1.83
2022-08-11T15:00:24.039Z,2.03
2022-08-11T15:03:10.068Z,2.20
2022-08-11T15:05:41.866Z,1.90
2022-08-11T15:08:46.027Z,2.00
2022-08-11T15:11:33.064Z,1.87
2022-08-11T15:14:02.675Z,1.90
2022-08-11T15:16:48.952Z,2.25
2022-08-11T15:19:17.301Z,1.90
2022-08-11T15:22:02.540Z,2.10
2022-08-11T15:24:30.976Z,2.10
2022-08-11T15:27:19.258Z,2.15
2022-08-11T15:30:06.163Z,2.00
2022-08-11T15:32:53.294Z,2.10
2022-08-11T15:35:39.415Z,2.38
2022-08-11T15:38:11.596Z,2.10
2022-08-11T15:41:00.362Z,2.20
2022-08-11T15:43:57.265Z,2.20
2022-08-11T15:46:31.621Z,2.10
2022-08-11T15:49:02.634Z,1.83
2022-08-11T15:51:49.378Z,1.97
2022-08-11T15:54:19.509Z,1.98
2022-08-11T15:56:50.107Z,1.85
2022-08-11T15:59:42.180Z,2.10
2022-08-11T16:02:32.744Z,2.10
2022-08-11T16:05:02.125Z,2.00
2022-08-11T16:07:34.253Z,2.00
2022-08-11T16:10:21.476Z,1.98
2022-08-11T16:13:05.674Z,1.90
2022-08-11T16:16:03.738Z,2.20
2022-08-11T16:18:40.573Z,1.83
2022-08-11T16:21:34.011Z,1.90
2022-08-11T16:24:06.159Z,2.08
2022-08-11T16:27:11.669Z,2.08
2022-08-11T16:29:25.271Z,2.00
2022-08-11T16:32:14.376Z,2.00
2022-08-11T16:35:04.860Z,2.30
2022-08-11T16:37:53.354Z,1.80
2022-08-11T16:40:32.893Z,2.10
2022-08-11T16:43:22.122Z,1.90
2022-08-11T16:46:08.333Z,2.10
2022-08-11T16:48:38.851Z,2.10
2022-08-11T16:51:11.943Z,2.15
2022-08-11T16:53:54.747Z,2.20
2022-08-11T16:56:35.717Z,2.30
2022-08-11T16:59:18.175Z,2.17
2022-08-11T17:01:51.717Z,2.10
2022-08-11T17:04:47.195Z,2.05
2022-08-11T17:07:42.070Z,2.22
2022-08-11T17:10:53.229Z,2.20
2022-08-11T17:13:29.119Z,2.03
2022-08-11T17:16:06.641Z,2.13
2022-08-11T17:19:02.768Z,2.10
2022-08-11T17:21:33.920Z,1.80
2022-08-11T17:24:09.033Z,2.25
2022-08-11T17:26:58.682Z,1.90
2022-08-11T17:29:53.728Z,2.00
2022-08-11T17:32:55.965Z,2.05
2022-08-11T17:35:31.198Z,1.90
2022-08-11T17:38:12.500Z,2.00
2022-08-11T17:41:02.098Z,1.90
2022-08-11T17:43:49.842Z,2.10
2022-08-11T17:46:37.090Z,1.90
2022-08-11T17:49:08.997Z,2.10
2022-08-11T17:51:56.365Z,1.92
2022-08-11T17:54:43.852Z,2.00
2022-08-11T17:57:32.422Z,2.20
2022-08-11T18:00:00.458Z,1.90
2022-08-11T18:02:53.373Z,1.90
2022-08-11T18:05:23.560Z,1.90
2022-08-11T18:08:11.897Z,1.90
2022-08-11T18:10:58.785Z,1.90
2022-08-11T18:13:47.186Z,2.20
2022-08-11T18:16:32.741Z,1.98
2022-08-11T18:19:18.296Z,2.15
2022-08-11T18:22:14.939Z,1.80
2022-08-11T18:25:10.336Z,1.80
2022-08-11T18:28:00.634Z,1.80
2022-08-11T18:30:47.559Z,1.80
2022-08-11T18:36:46.404Z,1.80
2022-08-11T18:39:33.300Z,1.80
2022-08-11T18:42:29.076Z,1.90
2022-08-11T18:45:20.584Z,1.80
2022-08-11T18:48:11.588Z,1.90
2022-08-11T18:51:30.055Z,1.60
2022-08-11T18:54:10.989Z,1.90
2022-08-11T18:56:56.753Z,1.77
2022-08-11T18:59:46.242Z,1.83
2022-08-11T19:02:48.983Z,1.80
2022-08-11T19:06:35.402Z,1.90
2022-08-11T19:08:47.422Z,1.85
2022-08-11T19:11:33.752Z,1.75
2022-08-11T19:14:22.721Z,1.95
2022-08-11T19:17:09.642Z,1.80
2022-08-11T19:19:58.131Z,1.87
2022-08-11T19:22:45.485Z,1.83
2022-08-11T19:25:32.413Z,1.90
2022-08-11T19:28:19.668Z,1.80
2022-08-11T19:31:05.117Z,2.00
2022-08-11T19:34:00.029Z,1.80
2022-08-11T19:36:56.623Z,1.70
2022-08-11T19:39:44.211Z,1.70
2022-08-11T19:42:30.642Z,1.90
2022-08-11T19:45:18.365Z,2.05
2022-08-11T19:48:30.669Z,1.80
2022-08-11T19:51:13.323Z,2.00
2022-08-11T19:54:01.614Z,1.90
2022-08-11T19:56:48.453Z,2.00
2022-08-11T19:59:37.181Z,2.00
2022-08-11T20:02:22.511Z,1.90
2022-08-11T20:05:07.829Z,2.28
2022-08-11T20:07:54.720Z,2.20
2022-08-11T20:10:41.345Z,2.20
2022-08-11T20:13:28.024Z,2.33
2022-08-11T20:16:14.552Z,2.33
2022-08-11T20:19:01.996Z,2.10
2022-08-11T20:21:47.683Z,2.22
2022-08-11T20:24:33.626Z,2.03
2022-08-11T20:27:24.446Z,2.03
2022-08-11T20:30:12.353Z,2.40
2022-08-11T20:33:00.507Z,2.20
2022-08-11T20:35:48.001Z,2.50
2022-08-11T20:38:34.536Z,2.28
2022-08-11T20:41:21.928Z,2.30
2022-08-11T20:44:09.307Z,2.30
2022-08-11T20:46:57.310Z,2.00
2022-08-11T20:49:50.594Z,2.40
2022-08-11T20:52:43.097Z,2.30
2022-08-11T20:55:51.959Z,2.13
2022-08-11T21:01:46.206Z,2.30
2022-08-11T21:04:32.762Z,2.28
2022-08-11T21:07:28.786Z,2.30
2022-08-11T21:10:28.706Z,2.10
2022-08-11T21:13:26.723Z,2.20
2022-08-11T21:16:26.187Z,2.40
2022-08-11T21:19:59.798Z,2.40
2022-08-11T21:22:37.712Z,2.22
2022-08-11T21:25:28.228Z,2.22
2022-08-11T21:28:20.676Z,2.33
2022-08-11T21:31:07.963Z,2.30
2022-08-11T21:33:53.850Z,2.60
2022-08-11T21:36:40.348Z,2.50
2022-08-11T21:39:28.940Z,2.63
2022-08-11T21:42:16.294Z,2.50
2022-08-11T21:45:03.291Z,2.30
2022-08-11T21:47:49.236Z,2.45
2022-08-11T21:50:35.156Z,2.53
2022-08-11T21:53:21.820Z,2.78
2022-08-11T21:56:08.785Z,2.60
2022-08-11T21:58:54.763Z,2.65
2022-08-11T22:01:41.146Z,3.03
2022-08-11T22:04:27.475Z,2.60
2022-08-11T22:07:13.917Z,2.60
2022-08-11T22:09:59.762Z,2.80
2022-08-11T22:12:45.659Z,2.95
2022-08-11T22:15:32.060Z,2.70
2022-08-11T22:18:20.968Z,2.60
2022-08-11T22:21:07.746Z,2.70
2022-08-11T22:23:59.195Z,2.60
2022-08-11T22:26:47.573Z,2.80
2022-08-11T22:29:38.201Z,2.80
2022-08-11T22:32:38.106Z,2.67
2022-08-11T22:35:28.425Z,2.50
2022-08-11T22:38:15.907Z,2.70
2022-08-11T22:41:01.780Z,2.72
2022-08-11T22:43:47.563Z,2.85
2022-08-11T22:46:35.321Z,2.90
2022-08-11T22:49:21.539Z,2.70
2022-08-11T22:52:08.969Z,2.87
2022-08-11T22:54:55.134Z,2.70
2022-08-11T22:57:40.893Z,2.75
2022-08-11T23:00:47.473Z,2.75
2022-08-11T23:03:38.244Z,2.80
2022-08-11T23:06:24.446Z,2.77
2022-08-11T23:09:10.949Z,2.75
2022-08-11T23:12:06.384Z,2.83
2022-08-11T23:14:54.801Z,3.08
2022-08-11T23:17:41.233Z,2.90
2022-08-11T23:20:39.090Z,2.40
2022-08-11T23:23:28.874Z,2.75
2022-08-11T23:26:15.797Z,2.70
2022-08-11T23:29:02.510Z,2.70
2022-08-11T23:31:53.034Z,2.78
2022-08-11T23:35:36.919Z,2.70
2022-08-11T23:37:48.667Z,2.83
2022-08-11T23:40:34.037Z,2.85
2022-08-11T23:43:19.600Z,3.05
2022-08-11T23:46:05.026Z,2.90
2022-08-11T23:48:51.499Z,2.57
2022-08-11T23:51:40.746Z,2.83
2022-08-11T23:54:31.590Z,2.83
2022-08-11T23:57:20.802Z,2.70
